Time;durP1;ratioP1;P1;durP2;ratioP2;P2;SDS_P1;SDS_P2;PMS_P1;PMS_P2;Temp;Humidity;BMP_temperature;BMP_pressure;BME280_temperature;BME280_humidity;BME280_pressure;Samples;Min_cycle;Max_cycle;Signal;HPM_P1;HPM_P2
2021/11/08 00:00:16;;;;;;;;;41.50;35.00;;;;;9.32;83.95;101985.84;5046967;28;45470;-59
2021/11/08 00:02:45;;;;;;;;;40.00;36.75;;;;;9.28;84.28;101973.75;5048363;28;45416;-59
2021/11/08 00:05:11;;;;;;;;;44.25;34.00;;;;;9.28;84.45;101975.47;5050546;28;45381;-59
2021/11/08 00:07:37;;;;;;;;;41.25;34.50;;;;;9.26;84.69;101975.47;5050397;28;45435;-59
2021/11/08 00:10:05;;;;;;;;;44.25;31.75;;;;;9.25;84.71;101971.16;5060160;28;46096;-59
2021/11/08 00:12:31;;;;;;;;;35.50;31.50;;;;;9.22;84.62;101963.41;5060520;28;45878;-59
2021/11/08 00:14:58;;;;;;;;;49.25;35.00;;;;;9.22;84.49;101967.72;5060616;28;45461;-59
2021/11/08 00:20:19;;;;;;;;;40.00;31.50;;;;;9.21;84.79;101968.56;5058944;28;45461;-59
2021/11/08 00:22:46;;;;;;;;;41.00;33.00;;;;;9.18;85.10;101960.78;5060490;28;45932;-59
2021/11/08 00:25:12;;;;;;;;;39.00;33.25;;;;;9.16;85.34;101960.78;5049643;28;45181;-61
2021/11/08 00:27:38;;;;;;;;;42.50;36.25;;;;;9.15;85.05;101978.09;5060288;28;45474;-61
2021/11/08 00:30:05;;;;;;;;;40.00;31.75;;;;;9.12;85.62;101970.31;5060508;28;46336;-60
2021/11/08 00:32:30;;;;;;;;;42.50;34.75;;;;;9.12;85.14;101975.50;5060450;28;45181;-60
2021/11/08 00:34:55;;;;;;;;;45.75;36.00;;;;;9.13;85.06;101978.97;5064256;28;46045;-61
2021/11/08 00:37:21;;;;;;;;;40.25;34.75;;;;;9.09;85.48;101980.69;5063147;28;45343;-60
2021/11/08 00:39:47;;;;;;;;;42.50;37.00;;;;;9.10;85.77;101977.25;5060304;28;45415;-60
2021/11/08 00:42:12;;;;;;;;;33.00;28.00;;;;;9.06;86.01;101967.75;5059529;28;45362;-60
2021/11/08 00:44:38;;;;;;;;;42.50;37.00;;;;;9.02;85.99;101963.44;5060357;28;45294;-60
2021/11/08 00:47:07;;;;;;;;;42.00;36.25;;;;;9.00;85.37;101966.88;5059018;28;45251;-59
2021/11/08 00:49:33;;;;;;;;;38.25;33.00;;;;;8.97;86.06;101959.09;5055697;28;47176;-59
2021/11/08 00:51:58;;;;;;;;;37.50;32.75;;;;;8.97;86.05;101967.75;5051310;28;45232;-58
2021/11/08 00:54:24;;;;;;;;;36.50;33.00;;;;;8.97;86.17;101969.47;5048115;28;45197;-59
2021/11/08 00:56:52;;;;;;;;;38.50;33.75;;;;;8.99;85.70;101983.28;5059970;28;45531;-59
2021/11/08 00:59:18;;;;;;;;;34.00;30.25;;;;;8.99;86.21;101976.38;5060383;28;45370;-58
2021/11/08 01:01:47;;;;;;;;;38.75;29.75;;;;;9.00;85.78;101970.31;5059853;28;45311;-59
2021/11/08 01:04:17;;;;;;;;;33.50;30.50;;;;;8.95;86.03;101971.19;5058957;28;45300;-59
2021/11/08 01:06:43;;;;;;;;;39.75;30.50;;;;;8.94;86.09;101983.31;5059914;28;45484;-59
2021/11/08 01:09:09;;;;;;;;;35.75;31.50;;;;;8.91;86.42;101985.91;5059798;28;46658;-59
2021/11/08 01:11:34;;;;;;;;;29.50;27.50;;;;;8.89;87.19;101990.22;5059926;28;45302;-59
2021/11/08 01:14:00;;;;;;;;;32.25;27.25;;;;;8.81;86.53;101984.19;5060196;28;45330;-60
2021/11/08 01:16:26;;;;;;;;;41.25;31.00;;;;;8.77;86.49;101991.06;5059158;28;45272;-60
2021/11/08 01:18:54;;;;;;;;;28.50;26.00;;;;;8.76;86.68;101983.31;5057314;28;47004;-59
2021/11/08 01:21:19;;;;;;;;;26.00;22.75;;;;;8.75;86.45;101977.25;5057034;28;45830;-60
2021/11/08 01:23:45;;;;;;;;;27.00;24.00;;;;;8.76;86.94;101971.22;5050672;28;45474;-60
2021/11/08 01:26:12;;;;;;;;;26.75;21.00;;;;;8.77;86.32;101972.06;5055817;28;45216;-60
2021/11/08 01:28:45;;;;;;;;;25.25;22.75;;;;;8.74;86.87;101975.53;5058329;28;47192;-59
2021/11/08 01:31:11;;;;;;;;;26.00;22.00;;;;;8.72;86.96;101971.22;5057010;28;45413;-59
2021/11/08 01:33:39;;;;;;;;;30.00;26.75;;;;;8.74;86.98;101965.16;5056666;28;45430;-59
2021/11/08 01:38:45;;;;;;;;;31.50;24.50;;;;;8.70;87.04;101963.44;5057042;28;45754;-59
2021/11/08 01:41:13;;;;;;;;;30.50;26.25;;;;;8.66;87.42;101979.00;5043823;28;45936;-60
2021/11/08 01:43:41;;;;;;;;;33.50;25.25;;;;;8.63;87.44;101966.91;5056877;28;45488;-59
2021/11/08 01:46:07;;;;;;;;;40.50;28.50;;;;;8.65;87.43;101967.78;5055834;28;45520;-59
2021/11/08 01:48:32;;;;;;;;;33.75;25.25;;;;;8.59;87.39;101949.59;5058858;28;45374;-60
2021/11/08 01:50:59;;;;;;;;;26.75;25.00;;;;;8.65;87.38;101969.50;5058212;28;45155;-59
2021/11/08 01:53:24;;;;;;;;;32.00;26.50;;;;;8.66;87.38;101963.47;5046943;28;45429;-60
2021/11/08 01:55:51;;;;;;;;;32.00;25.75;;;;;8.66;87.65;101966.91;5054551;28;45576;-60
2021/11/08 01:58:22;;;;;;;;;30.25;24.50;;;;;8.62;87.39;101967.78;5062928;28;46174;-59
2021/11/08 02:00:49;;;;;;;;;35.00;27.75;;;;;8.59;87.66;101957.38;5062554;28;45371;-59
2021/11/08 02:03:16;;;;;;;;;27.75;21.75;;;;;8.58;87.67;101966.03;5063048;28;45387;-59
2021/11/08 02:05:42;;;;;;;;;29.50;24.25;;;;;8.57;87.49;101959.13;5063033;28;45343;-59
2021/11/08 02:08:09;;;;;;;;;24.50;22.00;;;;;8.53;87.64;101955.66;5062734;28;45457;-59
2021/11/08 02:10:35;;;;;;;;;38.25;26.75;;;;;8.52;87.98;101950.47;5061557;28;45779;-59
2021/11/08 02:13:02;;;;;;;;;33.50;27.75;;;;;8.51;88.13;101946.16;5062756;28;45356;-59
2021/11/08 02:15:28;;;;;;;;;33.75;23.50;;;;;8.50;87.91;101947.03;5062673;28;45240;-60
2021/11/08 02:17:54;;;;;;;;;31.25;23.25;;;;;8.50;87.74;101953.06;5061782;28;47533;-59
2021/11/08 02:20:28;;;;;;;;;34.75;27.50;;;;;8.52;88.44;101950.47;5062261;28;45228;-60
2021/11/08 02:23:01;;;;;;;;;25.00;22.25;;;;;8.49;88.03;101950.50;5059882;28;45280;-59
2021/11/08 02:25:29;;;;;;;;;32.25;24.00;;;;;8.51;88.05;101949.63;5052946;28;45681;-59
2021/11/08 02:27:56;;;;;;;;;33.25;27.50;;;;;8.51;88.19;101947.03;5061089;28;47010;-59
2021/11/08 02:30:23;;;;;;;;;33.00;25.75;;;;;8.47;88.28;101950.50;5062441;28;45366;-60
2021/11/08 02:32:51;;;;;;;;;30.00;24.25;;;;;8.47;88.75;101960.00;5062508;28;45325;-59
2021/11/08 02:35:18;;;;;;;;;28.25;23.50;;;;;8.48;88.29;101953.94;5068895;28;45367;-59
2021/11/08 02:37:44;;;;;;;;;29.75;26.50;;;;;8.50;88.59;101936.66;5061570;28;46450;-60
2021/11/08 02:40:20;;;;;;;;;26.25;22.00;;;;;8.51;88.61;101936.66;5062215;28;45243;-59
2021/11/08 02:42:48;;;;;;;;;24.50;22.25;;;;;8.52;88.46;101937.53;5062101;28;45372;-59
2021/11/08 02:45:14;;;;;;;;;21.00;20.50;;;;;8.51;88.24;101944.44;5062882;28;45426;-59
2021/11/08 02:47:44;;;;;;;;;27.25;21.00;;;;;8.48;87.95;101941.00;5060564;28;46438;-59
2021/11/08 02:50:10;;;;;;;;;21.00;18.00;;;;;8.40;88.72;101946.16;5062367;28;45312;-59
2021/11/08 02:52:36;;;;;;;;;34.00;25.75;;;;;8.37;88.95;101945.28;5055248;28;45583;-60
2021/11/08 02:55:02;;;;;;;;;25.00;21.50;;;;;8.35;89.16;101949.59;5054251;28;45367;-59
2021/11/08 02:57:28;;;;;;;;;27.25;23.25;;;;;8.33;89.46;101951.31;5055719;28;45434;-59
2021/11/08 02:59:57;;;;;;;;;32.00;23.00;;;;;8.29;89.34;101947.84;5060679;28;45341;-60
2021/11/08 03:02:23;;;;;;;;;29.75;20.50;;;;;8.23;90.13;101946.13;5061812;28;45272;-59
2021/11/08 03:04:51;;;;;;;;;25.25;20.25;;;;;8.27;89.87;101956.47;5062014;28;45451;-59
2021/11/08 03:07:17;;;;;;;;;21.00;20.25;;;;;8.22;89.76;101944.41;5061688;28;46412;-59
2021/11/08 03:09:54;;;;;;;;;25.00;21.00;;;;;8.28;89.95;101961.66;5061641;28;45470;-59
2021/11/08 03:12:25;;;;;;;;;27.50;21.00;;;;;8.28;89.46;101956.47;5061843;28;45258;-59
2021/11/08 03:15:07;;;;;;;;;26.00;21.50;;;;;8.27;89.85;101954.75;5061500;28;45713;-59
2021/11/08 03:17:39;;;;;;;;;32.25;20.00;;;;;8.27;89.82;101952.16;5061822;28;46225;-59
2021/11/08 03:20:07;;;;;;;;;23.00;19.50;;;;;8.26;89.36;101959.94;5059398;28;45793;-59
2021/11/08 03:22:33;;;;;;;;;26.00;23.50;;;;;8.22;89.63;101959.94;5061831;28;45244;-59
2021/11/08 03:25:07;;;;;;;;;22.25;20.00;;;;;8.22;89.26;101967.69;5049548;28;45513;-59
2021/11/08 03:30:09;;;;;;;;;20.00;16.00;;;;;8.16;89.90;101966.81;5061501;28;45507;-59
2021/11/08 03:32:37;;;;;;;;;25.75;21.25;;;;;8.16;90.07;101966.81;5061626;28;45444;-59
2021/11/08 03:35:07;;;;;;;;;22.75;17.00;;;;;8.17;89.77;101966.81;5065947;28;45476;-60
2021/11/08 03:37:37;;;;;;;;;28.75;20.50;;;;;8.17;89.75;101966.81;5062006;28;46446;-59
2021/11/08 03:40:05;;;;;;;;;20.25;16.50;;;;;8.17;90.10;101964.22;5061275;28;45317;-59
2021/11/08 03:42:30;;;;;;;;;25.50;21.25;;;;;8.10;89.79;101953.84;5061040;28;45278;-60
2021/11/08 03:44:55;;;;;;;;;26.25;21.75;;;;;8.15;89.74;101967.66;5061126;28;46047;-59
2021/11/08 03:47:21;;;;;;;;;32.50;21.25;;;;;8.11;89.69;101971.13;5059693;28;46196;-59
2021/11/08 03:49:47;;;;;;;;;30.50;19.25;;;;;8.08;89.93;101969.38;5061381;28;45272;-60
2021/11/08 03:52:12;;;;;;;;;28.00;21.00;;;;;8.05;89.50;101974.56;5058923;28;45308;-60
2021/11/08 03:54:38;;;;;;;;;32.00;20.25;;;;;8.01;89.63;101974.53;5049807;28;45323;-59
2021/11/08 03:57:04;;;;;;;;;25.00;21.25;;;;;7.94;90.09;101963.28;5060799;28;45335;-60
2021/11/08 03:59:29;;;;;;;;;24.25;18.50;;;;;7.88;90.44;101965.88;5059979;28;45252;-59
2021/11/08 04:01:54;;;;;;;;;24.75;21.00;;;;;7.84;90.08;101966.72;5044332;28;45154;-59
2021/11/08 04:04:20;;;;;;;;;33.00;25.25;;;;;7.79;90.42;101958.94;5061016;28;45292;-60
2021/11/08 04:06:48;;;;;;;;;31.75;23.75;;;;;7.74;90.28;101962.38;5060679;28;45235;-60
2021/11/08 04:09:16;;;;;;;;;29.75;25.50;;;;;7.67;90.52;101958.03;5060778;28;45349;-60
2021/11/08 04:11:42;;;;;;;;;30.50;26.50;;;;;7.61;90.96;101962.34;5061012;28;45374;-59
2021/11/08 04:14:10;;;;;;;;;34.00;27.75;;;;;7.60;90.84;101960.56;5060897;28;45489;-59
2021/11/08 04:16:39;;;;;;;;;30.25;22.75;;;;;7.59;90.77;101943.31;5060357;28;47150;-59
2021/11/08 04:19:07;;;;;;;;;32.75;27.50;;;;;7.63;90.81;101955.44;5058694;28;45481;-59
2021/11/08 04:21:35;;;;;;;;;27.75;22.25;;;;;7.66;90.76;101961.47;5060735;28;45295;-60
2021/11/08 04:24:01;;;;;;;;;19.25;18.00;;;;;7.67;90.72;101960.63;5050474;28;45425;-59
2021/11/08 04:26:29;;;;;;;;;29.50;25.50;;;;;7.60;90.82;101964.88;5059021;28;46181;-59
2021/11/08 04:29:02;;;;;;;;;27.25;25.25;;;;;7.58;90.89;101964.03;5060368;28;45343;-59
2021/11/08 04:31:28;;;;;;;;;23.25;19.00;;;;;7.55;91.24;101957.13;5060559;28;45321;-59
2021/11/08 04:34:04;;;;;;;;;21.00;17.75;;;;;7.54;91.70;101967.44;5059359;28;45338;-60
2021/11/08 04:42:04;;;;;;;;;27.00;23.00;;;;;7.66;91.53;101971.84;5059255;28;45346;-61
2021/11/08 04:45:22;;;;;;;;;32.50;24.50;;;;;7.77;91.64;101977.91;5052028;28;45324;-60
2021/11/08 04:49:54;;;;;;;;;57.00;41.00;;;;;7.90;91.13;101970.19;5060079;28;45243;-60
2021/11/08 04:52:42;;;;;;;;;32.00;22.00;;;;;7.92;90.66;101959.84;5056794;28;45291;-59
2021/11/08 04:55:29;;;;;;;;;35.00;22.25;;;;;8.04;90.69;101979.75;5053064;28;45704;-59
2021/11/08 04:58:17;;;;;;;;;23.00;18.00;;;;;8.11;90.48;101986.66;5059842;28;45376;-59
2021/11/08 05:25:31;;;;;;;;;31.75;26.50;;;;;8.03;89.92;101984.06;5047903;28;45425;-59
2021/11/08 05:30:37;;;;;;;;;31.00;24.75;;;;;8.04;90.18;101972.84;5059471;28;45267;-60
2021/11/08 05:33:03;;;;;;;;;32.00;25.50;;;;;8.04;89.37;101977.16;5059549;28;45387;-60
2021/11/08 05:35:29;;;;;;;;;31.25;23.50;;;;;8.02;89.67;101978.88;5065693;28;45430;-60
2021/11/08 05:37:55;;;;;;;;;24.25;22.00;;;;;8.02;89.99;101982.31;5059448;28;45267;-61
2021/11/08 05:40:31;;;;;;;;;28.75;24.50;;;;;8.06;89.76;101981.47;5059185;28;46383;-59
2021/11/08 05:43:00;;;;;;;;;30.50;22.50;;;;;8.05;89.69;101984.91;5059201;28;45424;-59
2021/11/08 05:45:31;;;;;;;;;31.25;23.25;;;;;8.02;90.43;101990.09;5059089;28;45530;-59
2021/11/08 05:47:57;;;;;;;;;26.25;20.75;;;;;8.01;89.74;101993.53;5059450;28;45408;-60
2021/11/08 05:50:23;;;;;;;;;24.00;21.50;;;;;8.03;89.92;101998.72;5058844;28;46258;-60
2021/11/08 05:52:52;;;;;;;;;25.00;22.25;;;;;8.00;90.47;101988.31;5051806;28;45458;-60
2021/11/08 05:55:20;;;;;;;;;30.00;23.00;;;;;7.98;90.27;101984.88;5054529;28;45570;-60
2021/11/08 06:49:26;;;;;;;;;19.00;16.75;;;;;8.07;90.51;102031.53;5060917;28;45246;-63
2021/11/08 06:51:53;;;;;;;;;24.75;23.75;;;;;8.08;91.00;102044.47;5062243;28;45406;-67
2021/11/08 06:54:20;;;;;;;;;23.50;22.75;;;;;8.12;90.63;102046.19;5061559;28;46323;-63
2021/11/08 06:56:59;;;;;;;;;30.50;22.00;;;;;8.19;90.96;102053.13;5061721;28;45897;-62
2021/11/08 06:59:27;;;;;;;;;26.75;23.75;;;;;8.19;90.33;102053.13;5055986;28;45327;-64
2021/11/08 07:01:54;;;;;;;;;31.75;25.00;;;;;8.20;90.63;102052.25;5057465;28;45493;-60
2021/11/08 07:04:21;;;;;;;;;21.00;21.00;;;;;8.28;90.29;102054.03;5061740;28;45311;-61
2021/11/08 07:06:47;;;;;;;;;31.75;25.75;;;;;8.31;90.37;102061.81;5061163;28;45322;-61
2021/11/08 07:09:13;;;;;;;;;30.75;20.75;;;;;8.31;90.08;102064.38;5061533;28;45195;-61
2021/11/08 07:11:40;;;;;;;;;33.25;25.00;;;;;8.32;90.06;102068.72;5061056;28;45228;-75
2021/11/08 07:14:07;;;;;;;;;28.50;25.00;;;;;8.32;89.72;102064.41;5059291;28;48143;-63
2021/11/08 07:16:34;;;;;;;;;36.00;26.50;;;;;8.32;89.78;102060.94;5061071;28;45343;-63
2021/11/08 07:19:00;;;;;;;;;26.75;25.00;;;;;8.33;89.48;102060.94;5060125;28;45276;-63
2021/11/08 07:21:25;;;;;;;;;28.50;23.50;;;;;8.31;89.61;102061.81;5061163;28;45374;-63
2021/11/08 07:23:51;;;;;;;;;25.75;23.50;;;;;8.31;89.94;102072.16;5052176;28;45608;-63
2021/11/08 07:26:16;;;;;;;;;27.25;22.00;;;;;8.31;89.79;102067.84;5057904;28;45283;-63
2021/11/08 07:28:42;;;;;;;;;34.50;26.25;;;;;8.37;89.96;102069.63;5060745;28;45759;-63
2021/11/08 07:31:09;;;;;;;;;35.50;25.25;;;;;8.40;89.43;102079.97;5060812;28;45394;-63
2021/11/08 07:33:35;;;;;;;;;33.00;28.50;;;;;8.35;89.44;102066.16;5060742;28;46253;-63
2021/11/08 07:36:00;;;;;;;;;45.50;31.50;;;;;8.35;89.64;102077.38;5066699;28;45654;-63
2021/11/08 07:38:26;;;;;;;;;39.50;31.50;;;;;8.40;89.98;102083.44;5061073;28;45326;-63
2021/11/08 07:40:51;;;;;;;;;33.25;28.75;;;;;8.40;89.53;102085.16;5060901;28;45419;-63
2021/11/08 07:43:17;;;;;;;;;30.75;27.25;;;;;8.40;89.53;102082.56;5060211;28;45983;-63
2021/11/08 07:45:42;;;;;;;;;28.25;26.50;;;;;8.48;89.07;102093.84;5059113;28;45383;-63
2021/11/08 07:48:08;;;;;;;;;34.50;29.00;;;;;8.47;89.01;102094.69;5061019;28;45655;-63
2021/11/08 07:50:34;;;;;;;;;35.00;26.75;;;;;8.45;88.93;102083.47;5060611;28;45370;-63
2021/11/08 07:52:59;;;;;;;;;42.75;31.75;;;;;8.43;89.64;102093.84;5058893;28;45414;-63
2021/11/08 07:55:25;;;;;;;;;38.00;29.50;;;;;8.44;89.54;102094.69;5060589;28;45251;-63
2021/11/08 07:57:50;;;;;;;;;32.50;29.75;;;;;8.50;89.18;102100.75;5060635;28;45335;-63
2021/11/08 08:00:16;;;;;;;;;29.50;26.75;;;;;8.60;89.57;102100.75;5060546;28;45245;-63
2021/11/08 08:02:42;;;;;;;;;43.25;32.50;;;;;8.68;89.18;102094.75;5060476;28;45325;-63
2021/11/08 08:05:08;;;;;;;;;48.25;38.00;;;;;8.75;88.37;102096.47;5060378;28;45300;-63
2021/11/08 08:07:33;;;;;;;;;47.25;36.50;;;;;8.82;89.17;102098.25;5060558;28;45186;-63
2021/11/08 08:09:59;;;;;;;;;33.00;32.00;;;;;8.84;88.19;102100.84;5060011;28;45454;-63
2021/11/08 08:12:24;;;;;;;;;43.50;32.25;;;;;8.84;88.47;102096.50;5060274;28;46161;-63
2021/11/08 08:14:50;;;;;;;;;38.00;32.25;;;;;8.93;88.16;102106.00;5060113;28;45253;-63
2021/11/08 08:17:15;;;;;;;;;37.75;30.50;;;;;9.00;88.34;102102.56;5060450;28;45236;-63
2021/11/08 08:19:41;;;;;;;;;47.25;35.25;;;;;9.06;87.86;102096.53;5047147;28;45464;-63
2021/11/08 08:22:08;;;;;;;;;34.50;27.75;;;;;9.09;87.32;102118.13;5060314;28;45189;-63
2021/11/08 08:24:33;;;;;;;;;39.50;29.00;;;;;9.09;87.57;102112.09;5047336;28;45382;-63
2021/11/08 08:27:03;;;;;;;;;41.25;33.25;;;;;9.14;88.25;102115.53;5060155;28;45265;-62
2021/11/08 08:29:29;;;;;;;;;34.00;29.00;;;;;9.22;87.00;102113.84;5060210;28;45419;-63
2021/11/08 08:31:55;;;;;;;;;31.75;27.75;;;;;9.25;87.52;102111.25;5060103;28;46353;-63
2021/11/08 08:34:21;;;;;;;;;33.00;31.50;;;;;9.30;86.84;102109.50;5059957;28;45242;-63
2021/11/08 08:36:48;;;;;;;;;29.25;24.50;;;;;9.39;86.24;102116.41;5065997;28;45307;-63
2021/11/08 08:39:14;;;;;;;;;29.00;26.00;;;;;9.38;86.35;102107.75;5058254;28;45331;-62
2021/11/08 08:41:42;;;;;;;;;33.25;29.00;;;;;9.44;86.84;102102.59;5055348;28;48459;-62
2021/11/08 08:44:12;;;;;;;;;46.75;33.75;;;;;9.54;86.87;102105.16;5058929;28;45273;-62
2021/11/08 08:46:39;;;;;;;;;45.75;36.50;;;;;9.70;85.95;102105.13;5058864;28;45412;-62
2021/11/08 08:49:04;;;;;;;;;36.50;31.00;;;;;9.78;85.37;102115.47;5059996;28;45366;-63
2021/11/08 08:51:30;;;;;;;;;35.75;33.50;;;;;9.85;85.51;102117.22;5059940;28;46332;-62
2021/11/08 08:53:55;;;;;;;;;42.50;34.75;;;;;9.89;85.48;102110.28;5046191;28;45469;-63
2021/11/08 08:56:22;;;;;;;;;43.25;30.50;;;;;9.94;85.63;102116.31;5060157;28;45279;-63
2021/11/08 08:58:52;;;;;;;;;39.00;35.50;;;;;10.00;84.82;102122.34;5059679;28;45413;-63
2021/11/08 09:01:18;;;;;;;;;38.00;26.50;;;;;10.00;84.51;102119.75;5059715;28;47336;-63
2021/11/08 09:03:44;;;;;;;;;33.75;29.25;;;;;10.09;84.76;102125.81;5059423;28;45323;-63
2021/11/08 09:06:09;;;;;;;;;39.25;30.50;;;;;10.25;85.25;102127.50;5060223;28;45318;-63
2021/11/08 09:08:37;;;;;;;;;39.00;31.00;;;;;10.32;84.51;102118.81;5059139;28;45343;-63
2021/11/08 09:11:03;;;;;;;;;41.75;31.75;;;;;10.55;83.79;102121.31;5059284;28;45247;-63
2021/11/08 09:13:29;;;;;;;;;44.75;35.00;;;;;10.67;83.58;102116.03;5059358;28;45228;-63
2021/11/08 09:15:54;;;;;;;;;40.75;28.50;;;;;10.78;83.17;102119.44;5059718;28;45213;-63
2021/11/08 09:18:20;;;;;;;;;33.75;27.25;;;;;10.95;81.72;102124.53;5058247;28;45552;-63
2021/11/08 09:20:45;;;;;;;;;39.75;28.00;;;;;11.02;82.53;102122.75;5059757;28;46164;-63
2021/11/08 09:23:12;;;;;;;;;49.75;40.75;;;;;11.17;81.93;102122.63;5055966;28;45222;-63
2021/11/08 09:25:38;;;;;;;;;30.75;27.00;;;;;11.27;81.53;102125.16;5050749;28;45303;-63
2021/11/08 09:28:05;;;;;;;;;39.25;34.75;;;;;11.47;81.50;102124.13;5059119;28;45466;-63
2021/11/08 09:30:35;;;;;;;;;38.25;29.25;;;;;11.65;81.30;102117.88;5059163;28;46079;-63
2021/11/08 09:33:00;;;;;;;;;47.50;36.25;;;;;12.19;79.91;102119.03;5058345;28;45182;-63
2021/11/08 09:35:36;;;;;;;;;33.50;26.50;;;;;13.18;78.08;102128.09;5065981;28;45450;-63
2021/11/08 09:38:08;;;;;;;;;34.75;26.25;;;;;13.63;76.07;102121.25;5046426;28;45403;-63
2021/11/08 09:40:36;;;;;;;;;41.75;33.00;;;;;13.56;72.98;102117.00;5045694;28;46345;-64
2021/11/08 09:43:02;;;;;;;;;36.75;31.50;;;;;13.44;74.46;102113.78;5059217;28;45205;-64
2021/11/08 09:45:28;;;;;;;;;41.00;32.00;;;;;13.44;69.88;102126.84;5057883;28;45349;-64
2021/11/08 09:47:54;;;;;;;;;37.25;32.75;;;;;13.34;72.82;102131.34;5059527;28;45606;-64
2021/11/08 09:50:23;;;;;;;;;41.25;33.00;;;;;13.33;73.10;102124.38;5059113;28;46129;-64
2021/11/08 09:52:50;;;;;;;;;35.25;28.00;;;;;13.33;71.36;102127.00;5057625;28;45732;-64
2021/11/08 09:55:22;;;;;;;;;37.50;31.00;;;;;13.38;72.98;102123.41;5057976;28;45235;-64
2021/11/08 09:57:49;;;;;;;;;40.25;31.25;;;;;13.64;73.61;102120.38;5059148;28;45348;-64
2021/11/08 10:00:17;;;;;;;;;36.00;29.25;;;;;14.54;71.91;102121.19;5058810;28;46270;-64
2021/11/08 10:02:57;;;;;;;;;38.25;31.50;;;;;15.45;67.54;102119.94;5059079;28;45307;-64
2021/11/08 10:05:27;;;;;;;;;45.75;34.75;;;;;15.97;68.71;102114.16;5059089;28;45260;-64
2021/11/08 10:07:53;;;;;;;;;32.00;25.50;;;;;16.38;67.85;102112.97;5058726;28;45479;-64
2021/11/08 10:10:20;;;;;;;;;44.75;31.50;;;;;16.50;67.63;102111.75;5058890;28;46230;-64
2021/11/08 10:12:49;;;;;;;;;37.75;31.25;;;;;17.74;66.45;102113.84;5058484;28;45782;-64
2021/11/08 10:15:16;;;;;;;;;35.75;31.00;;;;;17.94;61.34;102111.38;5058963;28;45240;-64
2021/11/08 10:17:42;;;;;;;;;44.50;31.25;;;;;17.41;61.80;102107.09;5062583;28;45333;-64
2021/11/08 10:20:08;;;;;;;;;35.50;29.50;;;;;17.17;63.48;102114.91;5061232;28;45424;-64
2021/11/08 10:22:35;;;;;;;;;41.50;30.50;;;;;17.49;63.09;102110.34;5061949;28;45927;-64
2021/11/08 10:25:03;;;;;;;;;36.75;29.75;;;;;18.44;62.40;102108.63;5051431;28;45347;-64
2021/11/08 10:27:41;;;;;;;;;29.00;27.00;;;;;18.43;60.51;102100.81;5062069;28;45399;-64
2021/11/08 10:30:07;;;;;;;;;31.75;28.25;;;;;18.26;58.91;102104.06;5062298;28;45243;-64
2021/11/08 10:32:35;;;;;;;;;31.75;29.50;;;;;18.75;55.48;102102.19;5061906;28;45384;-64
2021/11/08 10:35:01;;;;;;;;;27.75;25.00;;;;;19.58;55.28;102116.31;5066664;28;45276;-64
2021/11/08 10:37:30;;;;;;;;;32.75;26.50;;;;;19.43;56.56;102103.78;5064470;28;45481;-64
2021/11/08 10:39:58;;;;;;;;;37.00;25.25;;;;;19.09;56.83;102118.34;5060684;28;46249;-64
2021/11/08 10:42:26;;;;;;;;;34.00;27.50;;;;;18.62;56.91;102112.34;5061695;28;45461;-64
2021/11/08 10:44:53;;;;;;;;;34.75;30.00;;;;;18.08;53.64;102104.75;5061858;28;45287;-64
2021/11/08 10:47:22;;;;;;;;;32.25;28.75;;;;;17.30;55.17;102113.59;5060476;28;45263;-64
2021/11/08 10:49:49;;;;;;;;;34.00;22.50;;;;;16.98;57.55;102100.66;5062117;28;47316;-63
2021/11/08 10:52:17;;;;;;;;;32.50;26.00;;;;;17.06;57.43;102106.53;5061596;28;45715;-66
2021/11/08 10:54:46;;;;;;;;;23.50;20.50;;;;;18.09;59.70;102101.22;5061801;28;45473;-69
2021/11/08 10:57:24;;;;;;;;;22.75;17.50;;;;;19.69;50.62;102106.16;5061350;28;45571;-69
2021/11/08 10:59:51;;;;;;;;;28.00;18.00;;;;;19.28;48.65;102086.81;5057312;28;46109;-67
2021/11/08 11:02:22;;;;;;;;;28.00;21.00;;;;;18.65;51.92;102090.31;5065587;28;45700;-68
2021/11/08 11:04:57;;;;;;;;;30.00;21.75;;;;;18.41;54.01;102092.06;5050950;28;45340;-68
2021/11/08 11:07:24;;;;;;;;;25.00;18.25;;;;;19.75;54.84;102100.59;5050889;28;45573;-68
2021/11/08 11:09:54;;;;;;;;;25.75;19.75;;;;;20.25;52.04;102099.25;5049705;28;45468;-66
2021/11/08 11:12:23;;;;;;;;;21.75;17.00;;;;;19.71;50.68;102090.25;5048124;28;45365;-66
2021/11/08 11:14:57;;;;;;;;;24.50;16.00;;;;;19.45;49.43;102089.59;5054693;28;45378;-64
2021/11/08 11:17:24;;;;;;;;;15.00;12.25;;;;;19.82;49.48;102085.34;5061260;28;45444;-64
2021/11/08 11:19:51;;;;;;;;;16.25;11.25;;;;;20.05;51.13;102094.91;5058985;28;45543;-64
2021/11/08 11:22:22;;;;;;;;;10.75;9.50;;;;;21.21;48.27;102094.59;5060925;28;45223;-65
2021/11/08 11:24:53;;;;;;;;;8.00;5.75;;;;;20.96;45.15;102100.25;5048351;28;45325;-65
2021/11/08 11:27:26;;;;;;;;;7.75;5.00;;;;;19.95;44.51;102089.16;5055945;28;45990;-65
2021/11/08 11:29:53;;;;;;;;;13.50;8.00;;;;;19.22;44.19;102081.81;5058650;28;46973;-65
2021/11/08 11:32:26;;;;;;;;;12.25;9.00;;;;;19.26;44.94;102093.06;5061157;28;45611;-65
2021/11/08 11:34:55;;;;;;;;;9.75;7.00;;;;;19.23;47.83;102082.66;5063853;28;45314;-64
2021/11/08 11:37:23;;;;;;;;;12.00;9.25;;;;;20.78;47.04;102088.81;5062931;28;45197;-64
2021/11/08 11:39:49;;;;;;;;;13.25;8.25;;;;;21.55;41.57;102078.75;5060330;28;45452;-65
2021/11/08 11:42:15;;;;;;;;;11.00;9.00;;;;;20.57;42.44;102074.84;5060248;28;45569;-64
2021/11/08 11:44:41;;;;;;;;;11.25;8.00;;;;;19.59;42.91;102067.91;5059945;28;45387;-65
2021/11/08 11:47:17;;;;;;;;;8.75;7.50;;;;;18.73;44.71;102073.28;5059040;28;45338;-64
2021/11/08 11:49:45;;;;;;;;;10.00;8.25;;;;;18.24;45.48;102069.91;5060423;28;46593;-64
2021/11/08 11:52:11;;;;;;;;;14.00;11.00;;;;;17.82;47.14;102059.22;5060326;28;45903;-67
2021/11/08 11:54:38;;;;;;;;;18.75;13.50;;;;;17.63;48.07;102050.25;5060580;28;45592;-70
2021/11/08 11:57:04;;;;;;;;;16.75;9.25;;;;;17.46;45.47;102060.50;5060076;28;45391;-70
2021/11/08 11:59:30;;;;;;;;;15.25;10.00;;;;;17.15;48.11;102063.31;5060186;28;45715;-67
2021/11/08 12:01:56;;;;;;;;;15.50;10.00;;;;;17.01;49.40;102058.53;5060219;28;45280;-68
2021/11/08 12:04:23;;;;;;;;;8.00;7.75;;;;;16.84;46.50;102064.34;5060733;28;45299;-67
2021/11/08 12:06:52;;;;;;;;;9.00;7.75;;;;;16.58;47.60;102061.63;5060170;28;45358;-68
2021/11/08 12:09:20;;;;;;;;;15.75;10.00;;;;;16.34;48.36;102056.25;5055359;28;47158;-67
2021/11/08 12:11:52;;;;;;;;;7.00;6.00;;;;;16.23;49.89;102050.50;5056478;28;45715;-63
2021/11/08 12:14:28;;;;;;;;;14.50;8.25;;;;;16.25;50.14;102043.44;5056412;28;45325;-61
2021/11/08 12:17:16;;;;;;;;;11.75;8.25;;;;;16.39;50.17;102046.47;5059522;28;45307;-61
2021/11/08 12:19:43;;;;;;;;;9.75;7.25;;;;;16.37;49.88;102037.78;5058816;28;45374;-61
2021/11/08 12:22:26;;;;;;;;;8.50;4.50;;;;;16.45;49.62;102034.94;5060534;28;45657;-62
2021/11/08 12:25:19;;;;;;;;;6.50;4.75;;;;;16.48;49.95;102033.97;5048772;28;45533;-62
2021/11/08 12:27:47;;;;;;;;;5.75;3.00;;;;;16.29;47.98;102045.03;5059265;28;45497;-62
2021/11/08 12:30:25;;;;;;;;;11.25;7.00;;;;;16.08;49.08;102035.19;5058299;28;46728;-63
2021/11/08 12:32:52;;;;;;;;;6.50;5.50;;;;;16.04;49.66;102033.56;5059406;28;45710;-62
2021/11/08 12:35:41;;;;;;;;;7.25;6.00;;;;;16.02;50.97;102031.00;5067168;28;45349;-62
2021/11/08 12:38:19;;;;;;;;;4.00;3.00;;;;;15.84;49.22;102028.91;5048229;28;45388;-62
2021/11/08 12:40:46;;;;;;;;;7.25;5.00;;;;;15.66;49.41;102029.44;5058638;28;46189;-62
2021/11/08 12:43:23;;;;;;;;;8.50;5.25;;;;;15.51;49.31;102022.81;5057861;28;45378;-61
2021/11/08 12:45:48;;;;;;;;;5.50;4.00;;;;;15.30;49.89;102024.25;5045786;28;45617;-60
2021/11/08 12:48:17;;;;;;;;;4.00;4.00;;;;;15.12;49.94;102017.72;5057447;28;45374;-61
2021/11/08 12:50:47;;;;;;;;;8.00;3.75;;;;;15.01;51.12;102013.66;5059771;28;46457;-60
2021/11/08 12:53:47;;;;;;;;;5.00;4.25;;;;;14.90;50.94;102014.81;5043235;28;45288;-60
2021/11/08 12:56:30;;;;;;;;;9.00;5.00;;;;;14.84;51.88;102014.97;5036734;28;45295;-60